sensor_id;sensor_type;location;lat;lon;timestamp;temperature;humidity
18337;DHT22;9294;51.106;7.028;2022-12-08T00:00:06;19.50;93.20
18337;DHT22;9294;51.106;7.028;2022-12-08T00:02:33;19.40;93.20
18337;DHT22;9294;51.106;7.028;2022-12-08T00:05:01;19.50;93.20
18337;DHT22;9294;51.106;7.028;2022-12-08T00:07:45;19.50;92.90
18337;DHT22;9294;51.106;7.028;2022-12-08T00:10:29;19.40;93.20
18337;DHT22;9294;51.106;7.028;2022-12-08T00:12:56;19.40;93.20
18337;DHT22;9294;51.106;7.028;2022-12-08T00:15:22;19.40;93.10
18337;DHT22;9294;51.106;7.028;2022-12-08T00:17:49;19.40;93.10
18337;DHT22;9294;51.106;7.028;2022-12-08T00:20:17;19.40;93.10
18337;DHT22;9294;51.106;7.028;2022-12-08T00:22:44;19.40;93.10
18337;DHT22;9294;51.106;7.028;2022-12-08T00:25:11;19.40;93.20
18337;DHT22;9294;51.106;7.028;2022-12-08T00:27:39;19.40;93.10
18337;DHT22;9294;51.106;7.028;2022-12-08T00:30:06;19.40;93.10
18337;DHT22;9294;51.106;7.028;2022-12-08T00:32:33;19.30;93.40
18337;DHT22;9294;51.106;7.028;2022-12-08T00:35:00;19.30;93.10
18337;DHT22;9294;51.106;7.028;2022-12-08T00:37:28;19.40;93.10
18337;DHT22;9294;51.106;7.028;2022-12-08T00:39:55;19.30;93.10
18337;DHT22;9294;51.106;7.028;2022-12-08T00:42:21;19.40;93.10
18337;DHT22;9294;51.106;7.028;2022-12-08T00:44:48;19.30;93.10
18337;DHT22;9294;51.106;7.028;2022-12-08T00:47:15;19.30;93.10
18337;DHT22;9294;51.106;7.028;2022-12-08T00:49:41;19.30;93.20
18337;DHT22;9294;51.106;7.028;2022-12-08T00:52:08;19.30;93.10
18337;DHT22;9294;51.106;7.028;2022-12-08T00:54:36;19.30;93.10
18337;DHT22;9294;51.106;7.028;2022-12-08T00:57:03;19.30;92.70
18337;DHT22;9294;51.106;7.028;2022-12-08T00:59:30;19.30;93.00
18337;DHT22;9294;51.106;7.028;2022-12-08T01:01:56;19.30;93.00
18337;DHT22;9294;51.106;7.028;2022-12-08T01:04:23;19.30;93.00
18337;DHT22;9294;51.106;7.028;2022-12-08T01:06:50;19.30;93.00
18337;DHT22;9294;51.106;7.028;2022-12-08T01:09:17;19.30;93.00
18337;DHT22;9294;51.106;7.028;2022-12-08T01:11:46;19.30;93.10
18337;DHT22;9294;51.106;7.028;2022-12-08T01:14:13;19.30;93.10
18337;DHT22;9294;51.106;7.028;2022-12-08T01:16:40;19.30;93.00
18337;DHT22;9294;51.106;7.028;2022-12-08T01:19:08;19.30;93.00
18337;DHT22;9294;51.106;7.028;2022-12-08T01:21:36;19.30;93.00
18337;DHT22;9294;51.106;7.028;2022-12-08T01:24:03;19.20;93.00
18337;DHT22;9294;51.106;7.028;2022-12-08T01:26:30;19.20;93.00
18337;DHT22;9294;51.106;7.028;2022-12-08T01:28:58;19.20;93.00
18337;DHT22;9294;51.106;7.028;2022-12-08T01:31:25;19.30;93.00
18337;DHT22;9294;51.106;7.028;2022-12-08T01:33:52;19.20;92.90
18337;DHT22;9294;51.106;7.028;2022-12-08T01:36:21;19.20;92.70
18337;DHT22;9294;51.106;7.028;2022-12-08T01:38:48;19.20;93.00
18337;DHT22;9294;51.106;7.028;2022-12-08T01:41:16;19.20;92.90
18337;DHT22;9294;51.106;7.028;2022-12-08T01:43:54;19.20;92.90
18337;DHT22;9294;51.106;7.028;2022-12-08T01:46:23;19.20;92.90
18337;DHT22;9294;51.106;7.028;2022-12-08T01:48:53;19.20;92.90
18337;DHT22;9294;51.106;7.028;2022-12-08T01:51:21;19.10;92.90
18337;DHT22;9294;51.106;7.028;2022-12-08T01:53:48;19.20;92.90
18337;DHT22;9294;51.106;7.028;2022-12-08T01:56:19;19.20;92.90
18337;DHT22;9294;51.106;7.028;2022-12-08T01:58:48;19.20;93.00
18337;DHT22;9294;51.106;7.028;2022-12-08T02:01:16;19.20;93.00
18337;DHT22;9294;51.106;7.028;2022-12-08T02:03:49;19.10;92.90
18337;DHT22;9294;51.106;7.028;2022-12-08T02:06:17;19.10;92.90
18337;DHT22;9294;51.106;7.028;2022-12-08T02:08:45;19.20;92.90
18337;DHT22;9294;51.106;7.028;2022-12-08T02:11:13;19.10;92.90
18337;DHT22;9294;51.106;7.028;2022-12-08T02:13:41;19.10;92.90
18337;DHT22;9294;51.106;7.028;2022-12-08T02:16:14;19.10;92.60
18337;DHT22;9294;51.106;7.028;2022-12-08T02:18:55;19.10;92.90
18337;DHT22;9294;51.106;7.028;2022-12-08T02:21:28;19.10;92.90
18337;DHT22;9294;51.106;7.028;2022-12-08T02:24:06;19.00;92.90
18337;DHT22;9294;51.106;7.028;2022-12-08T02:26:57;19.10;92.90
18337;DHT22;9294;51.106;7.028;2022-12-08T02:29:49;19.10;92.90
18337;DHT22;9294;51.106;7.028;2022-12-08T02:32:47;19.00;92.90
18337;DHT22;9294;51.106;7.028;2022-12-08T02:35:27;19.10;92.90
18337;DHT22;9294;51.106;7.028;2022-12-08T02:38:05;19.00;92.50
18337;DHT22;9294;51.106;7.028;2022-12-08T02:40:36;19.10;92.80
18337;DHT22;9294;51.106;7.028;2022-12-08T02:43:11;19.00;92.80
18337;DHT22;9294;51.106;7.028;2022-12-08T02:45:43;19.00;92.80
18337;DHT22;9294;51.106;7.028;2022-12-08T02:48:11;19.00;92.80
18337;DHT22;9294;51.106;7.028;2022-12-08T02:50:39;19.00;92.80
18337;DHT22;9294;51.106;7.028;2022-12-08T02:53:07;19.00;92.70
18337;DHT22;9294;51.106;7.028;2022-12-08T02:55:41;19.00;92.70
18337;DHT22;9294;51.106;7.028;2022-12-08T02:58:36;19.00;92.80
18337;DHT22;9294;51.106;7.028;2022-12-08T03:01:30;19.00;92.80
18337;DHT22;9294;51.106;7.028;2022-12-08T03:04:05;18.90;92.70
18337;DHT22;9294;51.106;7.028;2022-12-08T03:06:41;19.00;92.70
18337;DHT22;9294;51.106;7.028;2022-12-08T03:09:17;19.00;92.70
18337;DHT22;9294;51.106;7.028;2022-12-08T03:11:48;19.00;92.80
18337;DHT22;9294;51.106;7.028;2022-12-08T03:14:18;19.00;92.70
18337;DHT22;9294;51.106;7.028;2022-12-08T03:16:48;19.00;92.60
18337;DHT22;9294;51.106;7.028;2022-12-08T03:19:18;19.00;92.60
18337;DHT22;9294;51.106;7.028;2022-12-08T03:21:50;19.00;92.60
18337;DHT22;9294;51.106;7.028;2022-12-08T03:24:18;19.00;92.60
18337;DHT22;9294;51.106;7.028;2022-12-08T03:26:50;19.00;92.60
18337;DHT22;9294;51.106;7.028;2022-12-08T03:29:18;19.00;92.70
18337;DHT22;9294;51.106;7.028;2022-12-08T03:31:48;19.00;92.60
18337;DHT22;9294;51.106;7.028;2022-12-08T03:34:16;19.00;92.50
18337;DHT22;9294;51.106;7.028;2022-12-08T03:36:43;19.10;92.50
18337;DHT22;9294;51.106;7.028;2022-12-08T03:39:12;19.00;92.40
18337;DHT22;9294;51.106;7.028;2022-12-08T03:41:38;19.00;92.50
18337;DHT22;9294;51.106;7.028;2022-12-08T03:44:05;19.00;92.50
18337;DHT22;9294;51.106;7.028;2022-12-08T03:46:32;19.00;92.40
18337;DHT22;9294;51.106;7.028;2022-12-08T03:48:59;19.00;92.40
18337;DHT22;9294;51.106;7.028;2022-12-08T03:51:25;19.00;92.40
18337;DHT22;9294;51.106;7.028;2022-12-08T03:53:52;19.00;92.30
18337;DHT22;9294;51.106;7.028;2022-12-08T03:56:23;19.00;92.10
18337;DHT22;9294;51.106;7.028;2022-12-08T03:58:50;19.00;92.40
18337;DHT22;9294;51.106;7.028;2022-12-08T04:01:17;19.00;92.40
18337;DHT22;9294;51.106;7.028;2022-12-08T04:03:43;19.00;92.40
18337;DHT22;9294;51.106;7.028;2022-12-08T04:06:10;18.90;92.10
18337;DHT22;9294;51.106;7.028;2022-12-08T04:08:37;18.90;92.70
18337;DHT22;9294;51.106;7.028;2022-12-08T04:11:04;19.00;92.30
18337;DHT22;9294;51.106;7.028;2022-12-08T04:13:33;19.00;92.20
18337;DHT22;9294;51.106;7.028;2022-12-08T04:16:00;19.00;91.90
18337;DHT22;9294;51.106;7.028;2022-12-08T04:18:26;19.00;92.20
18337;DHT22;9294;51.106;7.028;2022-12-08T04:20:53;19.00;92.20
18337;DHT22;9294;51.106;7.028;2022-12-08T04:23:20;19.00;92.20
18337;DHT22;9294;51.106;7.028;2022-12-08T04:25:47;18.90;92.20
18337;DHT22;9294;51.106;7.028;2022-12-08T04:28:13;18.90;92.20
18337;DHT22;9294;51.106;7.028;2022-12-08T04:30:42;18.90;92.20
18337;DHT22;9294;51.106;7.028;2022-12-08T04:33:09;18.90;92.20
18337;DHT22;9294;51.106;7.028;2022-12-08T04:35:35;18.90;92.30
18337;DHT22;9294;51.106;7.028;2022-12-08T04:38:02;18.90;92.30
18337;DHT22;9294;51.106;7.028;2022-12-08T04:40:29;18.90;92.30
18337;DHT22;9294;51.106;7.028;2022-12-08T04:42:55;18.80;92.40
18337;DHT22;9294;51.106;7.028;2022-12-08T04:45:22;18.80;92.60
18337;DHT22;9294;51.106;7.028;2022-12-08T04:47:50;18.70;92.40
18337;DHT22;9294;51.106;7.028;2022-12-08T04:50:17;18.70;92.80
18337;DHT22;9294;51.106;7.028;2022-12-08T04:52:43;18.80;92.80
18337;DHT22;9294;51.106;7.028;2022-12-08T04:55:10;18.90;92.70
18337;DHT22;9294;51.106;7.028;2022-12-08T04:57:37;19.00;92.20
18337;DHT22;9294;51.106;7.028;2022-12-08T05:00:04;19.10;92.40
18337;DHT22;9294;51.106;7.028;2022-12-08T05:02:32;19.10;92.20
18337;DHT22;9294;51.106;7.028;2022-12-08T05:05:00;19.10;92.20
18337;DHT22;9294;51.106;7.028;2022-12-08T05:07:26;19.30;92.20
18337;DHT22;9294;51.106;7.028;2022-12-08T05:09:53;19.30;92.00
18337;DHT22;9294;51.106;7.028;2022-12-08T05:12:20;19.40;92.00
18337;DHT22;9294;51.106;7.028;2022-12-08T05:14:46;19.40;91.80
18337;DHT22;9294;51.106;7.028;2022-12-08T05:17:13;19.50;91.80
18337;DHT22;9294;51.106;7.028;2022-12-08T05:19:40;19.50;91.60
18337;DHT22;9294;51.106;7.028;2022-12-08T05:22:08;19.60;91.60
18337;DHT22;9294;51.106;7.028;2022-12-08T05:24:34;19.60;91.50
18337;DHT22;9294;51.106;7.028;2022-12-08T05:27:01;19.80;91.50
18337;DHT22;9294;51.106;7.028;2022-12-08T05:29:28;19.80;91.40
18337;DHT22;9294;51.106;7.028;2022-12-08T05:31:55;19.80;91.20
18337;DHT22;9294;51.106;7.028;2022-12-08T05:34:22;19.80;91.20
18337;DHT22;9294;51.106;7.028;2022-12-08T05:36:48;19.90;90.80
18337;DHT22;9294;51.106;7.028;2022-12-08T05:39:16;19.90;91.10
18337;DHT22;9294;51.106;7.028;2022-12-08T05:41:43;19.90;91.00
18337;DHT22;9294;51.106;7.028;2022-12-08T05:44:10;20.00;91.00
18337;DHT22;9294;51.106;7.028;2022-12-08T05:46:36;20.00;90.60
18337;DHT22;9294;51.106;7.028;2022-12-08T05:49:03;19.80;90.80
18337;DHT22;9294;51.106;7.028;2022-12-08T05:51:30;20.00;90.90
18337;DHT22;9294;51.106;7.028;2022-12-08T05:53:57;20.00;90.80
18337;DHT22;9294;51.106;7.028;2022-12-08T05:56:25;20.00;90.60
18337;DHT22;9294;51.106;7.028;2022-12-08T05:58:52;19.90;90.80
18337;DHT22;9294;51.106;7.028;2022-12-08T06:01:20;20.00;90.90
18337;DHT22;9294;51.106;7.028;2022-12-08T06:03:48;20.00;90.90
18337;DHT22;9294;51.106;7.028;2022-12-08T06:06:14;20.00;90.90
18337;DHT22;9294;51.106;7.028;2022-12-08T06:08:41;19.90;91.00
18337;DHT22;9294;51.106;7.028;2022-12-08T06:11:08;19.80;91.10
18337;DHT22;9294;51.106;7.028;2022-12-08T06:13:36;19.90;91.20
18337;DHT22;9294;51.106;7.028;2022-12-08T06:16:04;20.10;91.20
18337;DHT22;9294;51.106;7.028;2022-12-08T06:18:31;20.20;91.20
18337;DHT22;9294;51.106;7.028;2022-12-08T06:21:02;20.30;93.80
18337;DHT22;9294;51.106;7.028;2022-12-08T06:23:29;20.30;92.80
18337;DHT22;9294;51.106;7.028;2022-12-08T06:25:59;20.20;91.80
18337;DHT22;9294;51.106;7.028;2022-12-08T06:28:27;20.20;92.00
18337;DHT22;9294;51.106;7.028;2022-12-08T06:30:55;20.20;93.30
18337;DHT22;9294;51.106;7.028;2022-12-08T06:33:22;20.20;92.90
18337;DHT22;9294;51.106;7.028;2022-12-08T06:35:49;20.20;93.10
18337;DHT22;9294;51.106;7.028;2022-12-08T06:38:15;20.10;93.10
18337;DHT22;9294;51.106;7.028;2022-12-08T06:40:42;20.20;93.20
18337;DHT22;9294;51.106;7.028;2022-12-08T06:43:09;20.10;93.50
18337;DHT22;9294;51.106;7.028;2022-12-08T06:45:35;20.10;93.40
18337;DHT22;9294;51.106;7.028;2022-12-08T06:48:04;20.10;93.60
18337;DHT22;9294;51.106;7.028;2022-12-08T06:50:30;20.00;93.60
18337;DHT22;9294;51.106;7.028;2022-12-08T06:52:59;20.00;93.60
18337;DHT22;9294;51.106;7.028;2022-12-08T06:55:26;19.90;93.60
18337;DHT22;9294;51.106;7.028;2022-12-08T06:57:53;19.90;93.60
18337;DHT22;9294;51.106;7.028;2022-12-08T07:00:20;19.80;93.50
18337;DHT22;9294;51.106;7.028;2022-12-08T07:02:47;19.80;93.30
18337;DHT22;9294;51.106;7.028;2022-12-08T07:05:15;19.60;93.50
18337;DHT22;9294;51.106;7.028;2022-12-08T07:07:42;19.70;93.20
18337;DHT22;9294;51.106;7.028;2022-12-08T07:10:09;19.80;93.80
18337;DHT22;9294;51.106;7.028;2022-12-08T07:12:36;19.90;93.20
18337;DHT22;9294;51.106;7.028;2022-12-08T07:15:04;20.00;92.90
18337;DHT22;9294;51.106;7.028;2022-12-08T07:17:30;19.90;92.70
18337;DHT22;9294;51.106;7.028;2022-12-08T07:19:57;19.80;92.60
18337;DHT22;9294;51.106;7.028;2022-12-08T07:22:25;19.80;92.20
18337;DHT22;9294;51.106;7.028;2022-12-08T07:24:52;19.80;91.80
18337;DHT22;9294;51.106;7.028;2022-12-08T07:27:18;19.80;91.80
18337;DHT22;9294;51.106;7.028;2022-12-08T07:29:45;19.70;91.60
18337;DHT22;9294;51.106;7.028;2022-12-08T07:32:12;19.70;91.80
18337;DHT22;9294;51.106;7.028;2022-12-08T07:34:38;19.80;91.70
18337;DHT22;9294;51.106;7.028;2022-12-08T07:37:05;20.00;91.70
18337;DHT22;9294;51.106;7.028;2022-12-08T07:39:33;20.00;91.70
18337;DHT22;9294;51.106;7.028;2022-12-08T07:41:59;20.10;91.60
18337;DHT22;9294;51.106;7.028;2022-12-08T07:44:26;20.10;91.90
18337;DHT22;9294;51.106;7.028;2022-12-08T07:46:53;20.10;91.90
18337;DHT22;9294;51.106;7.028;2022-12-08T07:49:19;20.20;92.20
18337;DHT22;9294;51.106;7.028;2022-12-08T07:51:46;20.10;92.30
18337;DHT22;9294;51.106;7.028;2022-12-08T07:54:13;20.10;92.70
18337;DHT22;9294;51.106;7.028;2022-12-08T07:56:41;20.20;92.50
18337;DHT22;9294;51.106;7.028;2022-12-08T07:59:07;20.30;92.70
18337;DHT22;9294;51.106;7.028;2022-12-08T08:01:34;20.50;92.40
18337;DHT22;9294;51.106;7.028;2022-12-08T08:04:03;20.60;92.30
18337;DHT22;9294;51.106;7.028;2022-12-08T08:06:31;20.60;92.20
18337;DHT22;9294;51.106;7.028;2022-12-08T08:08:58;20.60;92.00
18337;DHT22;9294;51.106;7.028;2022-12-08T08:11:24;20.70;92.00
18337;DHT22;9294;51.106;7.028;2022-12-08T08:13:52;20.70;91.90
18337;DHT22;9294;51.106;7.028;2022-12-08T08:16:19;20.60;91.30
18337;DHT22;9294;51.106;7.028;2022-12-08T08:18:47;20.60;91.60
18337;DHT22;9294;51.106;7.028;2022-12-08T08:21:14;20.70;91.80
18337;DHT22;9294;51.106;7.028;2022-12-08T08:23:41;20.70;92.10
18337;DHT22;9294;51.106;7.028;2022-12-08T08:26:08;20.60;92.50
18337;DHT22;9294;51.106;7.028;2022-12-08T08:28:34;20.60;92.50
18337;DHT22;9294;51.106;7.028;2022-12-08T08:31:04;20.60;92.30
18337;DHT22;9294;51.106;7.028;2022-12-08T08:33:31;20.50;92.90
18337;DHT22;9294;51.106;7.028;2022-12-08T08:35:58;20.60;92.90
18337;DHT22;9294;51.106;7.028;2022-12-08T08:38:25;20.60;92.80
18337;DHT22;9294;51.106;7.028;2022-12-08T08:40:52;20.50;92.90
18337;DHT22;9294;51.106;7.028;2022-12-08T08:43:18;20.40;92.80
18337;DHT22;9294;51.106;7.028;2022-12-08T08:45:55;20.40;93.20
18337;DHT22;9294;51.106;7.028;2022-12-08T08:48:25;20.30;93.20
18337;DHT22;9294;51.106;7.028;2022-12-08T08:50:52;20.40;93.50
18337;DHT22;9294;51.106;7.028;2022-12-08T08:53:19;20.50;93.30
18337;DHT22;9294;51.106;7.028;2022-12-08T08:55:46;20.50;93.20
18337;DHT22;9294;51.106;7.028;2022-12-08T08:58:13;20.40;93.70
18337;DHT22;9294;51.106;7.028;2022-12-08T09:00:40;20.30;93.70
18337;DHT22;9294;51.106;7.028;2022-12-08T09:03:07;20.20;93.60
18337;DHT22;9294;51.106;7.028;2022-12-08T09:05:36;20.30;93.60
18337;DHT22;9294;51.106;7.028;2022-12-08T09:08:03;20.30;93.40
18337;DHT22;9294;51.106;7.028;2022-12-08T09:10:30;20.20;93.80
18337;DHT22;9294;51.106;7.028;2022-12-08T09:12:56;20.30;93.80
18337;DHT22;9294;51.106;7.028;2022-12-08T09:15:23;20.30;93.80
18337;DHT22;9294;51.106;7.028;2022-12-08T09:17:50;20.30;93.70
18337;DHT22;9294;51.106;7.028;2022-12-08T09:20:16;20.40;93.90
18337;DHT22;9294;51.106;7.028;2022-12-08T09:22:44;20.40;94.20
18337;DHT22;9294;51.106;7.028;2022-12-08T09:25:12;20.40;94.20
18337;DHT22;9294;51.106;7.028;2022-12-08T09:27:38;20.60;93.70
18337;DHT22;9294;51.106;7.028;2022-12-08T09:30:06;20.60;93.50
18337;DHT22;9294;51.106;7.028;2022-12-08T09:32:33;20.50;93.50
18337;DHT22;9294;51.106;7.028;2022-12-08T09:35:00;20.60;93.40
18337;DHT22;9294;51.106;7.028;2022-12-08T09:37:27;20.40;92.40
18337;DHT22;9294;51.106;7.028;2022-12-08T09:39:55;20.30;92.20
18337;DHT22;9294;51.106;7.028;2022-12-08T09:42:29;20.20;92.80
18337;DHT22;9294;51.106;7.028;2022-12-08T09:45:03;20.20;93.30
18337;DHT22;9294;51.106;7.028;2022-12-08T09:47:33;20.40;93.10
18337;DHT22;9294;51.106;7.028;2022-12-08T09:50:04;20.40;92.80
18337;DHT22;9294;51.106;7.028;2022-12-08T09:52:36;20.40;93.50
18337;DHT22;9294;51.106;7.028;2022-12-08T09:55:12;20.40;93.10
18337;DHT22;9294;51.106;7.028;2022-12-08T09:57:39;20.50;92.90
18337;DHT22;9294;51.106;7.028;2022-12-08T10:00:10;20.50;92.80
18337;DHT22;9294;51.106;7.028;2022-12-08T10:02:37;20.50;92.90
18337;DHT22;9294;51.106;7.028;2022-12-08T10:05:05;20.50;92.90
18337;DHT22;9294;51.106;7.028;2022-12-08T10:07:37;20.50;92.80
18337;DHT22;9294;51.106;7.028;2022-12-08T10:10:20;20.40;92.80
18337;DHT22;9294;51.106;7.028;2022-12-08T10:12:53;20.40;92.40
18337;DHT22;9294;51.106;7.028;2022-12-08T10:15:31;20.30;92.50
18337;DHT22;9294;51.106;7.028;2022-12-08T10:18:02;20.20;92.50
18337;DHT22;9294;51.106;7.028;2022-12-08T10:20:35;20.40;92.50
18337;DHT22;9294;51.106;7.028;2022-12-08T10:23:07;20.40;92.30
18337;DHT22;9294;51.106;7.028;2022-12-08T10:25:40;20.30;92.10
18337;DHT22;9294;51.106;7.028;2022-12-08T10:28:10;20.30;92.30
18337;DHT22;9294;51.106;7.028;2022-12-08T10:30:37;20.40;92.20
18337;DHT22;9294;51.106;7.028;2022-12-08T10:33:03;20.50;92.20
18337;DHT22;9294;51.106;7.028;2022-12-08T10:35:43;20.30;93.40
18337;DHT22;9294;51.106;7.028;2022-12-08T10:38:17;20.30;93.00
18337;DHT22;9294;51.106;7.028;2022-12-08T10:40:46;20.30;93.30
18337;DHT22;9294;51.106;7.028;2022-12-08T10:43:14;20.20;93.60
18337;DHT22;9294;51.106;7.028;2022-12-08T10:45:42;20.20;93.20
18337;DHT22;9294;51.106;7.028;2022-12-08T10:48:15;20.20;93.60
18337;DHT22;9294;51.106;7.028;2022-12-08T10:50:44;20.20;93.60
18337;DHT22;9294;51.106;7.028;2022-12-08T10:53:13;20.20;93.70
18337;DHT22;9294;51.106;7.028;2022-12-08T10:55:42;20.30;93.20
18337;DHT22;9294;51.106;7.028;2022-12-08T10:58:24;20.50;93.30
18337;DHT22;9294;51.106;7.028;2022-12-08T11:00:52;20.70;92.20
18337;DHT22;9294;51.106;7.028;2022-12-08T11:03:24;20.70;92.60
18337;DHT22;9294;51.106;7.028;2022-12-08T11:05:55;20.90;92.20
18337;DHT22;9294;51.106;7.028;2022-12-08T11:08:22;21.00;92.10
18337;DHT22;9294;51.106;7.028;2022-12-08T11:10:49;21.20;91.70
18337;DHT22;9294;51.106;7.028;2022-12-08T11:13:20;21.30;91.20
18337;DHT22;9294;51.106;7.028;2022-12-08T11:18:28;21.50;90.40
18337;DHT22;9294;51.106;7.028;2022-12-08T11:20:58;21.50;90.60
18337;DHT22;9294;51.106;7.028;2022-12-08T11:23:26;21.60;90.20
18337;DHT22;9294;51.106;7.028;2022-12-08T11:25:56;21.50;89.80
18337;DHT22;9294;51.106;7.028;2022-12-08T11:28:24;21.50;89.70
18337;DHT22;9294;51.106;7.028;2022-12-08T11:30:57;21.40;90.00
18337;DHT22;9294;51.106;7.028;2022-12-08T11:33:27;21.40;90.00
18337;DHT22;9294;51.106;7.028;2022-12-08T11:35:58;21.50;90.40
18337;DHT22;9294;51.106;7.028;2022-12-08T11:38:27;21.40;90.10
18337;DHT22;9294;51.106;7.028;2022-12-08T11:40:56;21.50;90.80
18337;DHT22;9294;51.106;7.028;2022-12-08T11:43:28;21.50;90.60
18337;DHT22;9294;51.106;7.028;2022-12-08T11:46:00;21.40;90.50
18337;DHT22;9294;51.106;7.028;2022-12-08T11:48:31;21.40;90.60
18337;DHT22;9294;51.106;7.028;2022-12-08T11:51:01;21.40;90.80
18337;DHT22;9294;51.106;7.028;2022-12-08T11:53:34;21.60;90.80
18337;DHT22;9294;51.106;7.028;2022-12-08T11:56:07;21.60;90.80
18337;DHT22;9294;51.106;7.028;2022-12-08T11:58:38;21.40;91.10
18337;DHT22;9294;51.106;7.028;2022-12-08T12:01:15;21.30;90.90
18337;DHT22;9294;51.106;7.028;2022-12-08T12:03:45;21.20;90.90
18337;DHT22;9294;51.106;7.028;2022-12-08T12:06:26;21.20;91.00
18337;DHT22;9294;51.106;7.028;2022-12-08T12:09:04;21.20;90.80
18337;DHT22;9294;51.106;7.028;2022-12-08T12:11:42;21.10;90.90
18337;DHT22;9294;51.106;7.028;2022-12-08T12:17:40;21.00;90.90
18337;DHT22;9294;51.106;7.028;2022-12-08T12:20:14;21.10;90.20
18337;DHT22;9294;51.106;7.028;2022-12-08T12:22:44;21.10;90.20
18337;DHT22;9294;51.106;7.028;2022-12-08T12:25:17;21.00;90.50
18337;DHT22;9294;51.106;7.028;2022-12-08T12:27:44;20.90;90.40
18337;DHT22;9294;51.106;7.028;2022-12-08T12:30:19;20.90;90.20
18337;DHT22;9294;51.106;7.028;2022-12-08T12:32:51;20.90;90.70
18337;DHT22;9294;51.106;7.028;2022-12-08T12:35:25;20.90;91.30
18337;DHT22;9294;51.106;7.028;2022-12-08T12:37:56;20.80;91.60
18337;DHT22;9294;51.106;7.028;2022-12-08T12:40:26;20.80;92.00
18337;DHT22;9294;51.106;7.028;2022-12-08T12:43:12;20.70;92.00
18337;DHT22;9294;51.106;7.028;2022-12-08T12:45:39;20.70;92.00
18337;DHT22;9294;51.106;7.028;2022-12-08T12:48:27;20.70;92.30
18337;DHT22;9294;51.106;7.028;2022-12-08T12:50:54;20.70;92.50
18337;DHT22;9294;51.106;7.028;2022-12-08T12:53:46;20.70;92.60
18337;DHT22;9294;51.106;7.028;2022-12-08T12:56:50;20.80;92.20
18337;DHT22;9294;51.106;7.028;2022-12-08T12:59:41;20.80;92.40
18337;DHT22;9294;51.106;7.028;2022-12-08T13:02:19;20.90;92.30
18337;DHT22;9294;51.106;7.028;2022-12-08T13:04:56;20.80;91.80
18337;DHT22;9294;51.106;7.028;2022-12-08T13:07:25;20.80;91.80
18337;DHT22;9294;51.106;7.028;2022-12-08T13:09:57;20.70;92.00
18337;DHT22;9294;51.106;7.028;2022-12-08T13:12:26;20.70;91.90
18337;DHT22;9294;51.106;7.028;2022-12-08T13:14:58;20.70;91.70
18337;DHT22;9294;51.106;7.028;2022-12-08T13:17:28;20.60;91.40
18337;DHT22;9294;51.106;7.028;2022-12-08T13:19:58;20.60;91.80
18337;DHT22;9294;51.106;7.028;2022-12-08T13:25:50;20.60;91.60
18337;DHT22;9294;51.106;7.028;2022-12-08T13:28:23;20.60;91.70
18337;DHT22;9294;51.106;7.028;2022-12-08T13:30:51;20.50;91.60
18337;DHT22;9294;51.106;7.028;2022-12-08T13:33:22;20.50;91.60
18337;DHT22;9294;51.106;7.028;2022-12-08T13:35:56;20.40;91.60
18337;DHT22;9294;51.106;7.028;2022-12-08T13:38:29;20.30;91.70
18337;DHT22;9294;51.106;7.028;2022-12-08T13:41:00;20.30;91.80
18337;DHT22;9294;51.106;7.028;2022-12-08T13:43:34;20.30;91.70
18337;DHT22;9294;51.106;7.028;2022-12-08T13:46:05;20.20;91.80
18337;DHT22;9294;51.106;7.028;2022-12-08T13:48:41;20.30;92.00
18337;DHT22;9294;51.106;7.028;2022-12-08T13:51:14;20.20;91.90
18337;DHT22;9294;51.106;7.028;2022-12-08T13:53:44;20.20;92.00
18337;DHT22;9294;51.106;7.028;2022-12-08T13:56:12;20.10;92.00
18337;DHT22;9294;51.106;7.028;2022-12-08T13:58:39;20.10;92.00
18337;DHT22;9294;51.106;7.028;2022-12-08T14:01:09;20.10;92.00
18337;DHT22;9294;51.106;7.028;2022-12-08T14:03:45;20.10;92.10
18337;DHT22;9294;51.106;7.028;2022-12-08T14:06:15;20.00;91.80
18337;DHT22;9294;51.106;7.028;2022-12-08T14:08:45;19.90;92.10
18337;DHT22;9294;51.106;7.028;2022-12-08T14:11:22;19.90;92.00
18337;DHT22;9294;51.106;7.028;2022-12-08T14:13:58;19.90;92.20
18337;DHT22;9294;51.106;7.028;2022-12-08T14:16:27;19.90;92.10
18337;DHT22;9294;51.106;7.028;2022-12-08T14:19:01;19.90;92.00
18337;DHT22;9294;51.106;7.028;2022-12-08T14:21:30;20.00;92.00
18337;DHT22;9294;51.106;7.028;2022-12-08T14:24:00;20.00;91.80
18337;DHT22;9294;51.106;7.028;2022-12-08T14:26:31;20.10;91.70
18337;DHT22;9294;51.106;7.028;2022-12-08T14:28:58;20.20;91.60
18337;DHT22;9294;51.106;7.028;2022-12-08T14:31:26;20.20;91.60
18337;DHT22;9294;51.106;7.028;2022-12-08T14:33:53;20.30;91.50
18337;DHT22;9294;51.106;7.028;2022-12-08T14:36:20;20.30;91.00
18337;DHT22;9294;51.106;7.028;2022-12-08T14:38:49;20.30;91.30
18337;DHT22;9294;51.106;7.028;2022-12-08T14:41:24;20.30;91.30
18337;DHT22;9294;51.106;7.028;2022-12-08T14:43:58;20.40;91.30
18337;DHT22;9294;51.106;7.028;2022-12-08T14:46:26;20.40;91.00
18337;DHT22;9294;51.106;7.028;2022-12-08T14:48:53;20.40;91.30
18337;DHT22;9294;51.106;7.028;2022-12-08T14:51:27;20.40;91.20
18337;DHT22;9294;51.106;7.028;2022-12-08T14:53:57;20.30;91.20
18337;DHT22;9294;51.106;7.028;2022-12-08T14:56:30;20.50;91.40
18337;DHT22;9294;51.106;7.028;2022-12-08T14:59:04;20.60;91.30
18337;DHT22;9294;51.106;7.028;2022-12-08T15:01:32;20.80;91.20
18337;DHT22;9294;51.106;7.028;2022-12-08T15:04:02;20.80;91.10
18337;DHT22;9294;51.106;7.028;2022-12-08T15:06:31;20.80;90.90
18337;DHT22;9294;51.106;7.028;2022-12-08T15:09:14;20.70;91.20
18337;DHT22;9294;51.106;7.028;2022-12-08T15:11:41;20.60;91.20
18337;DHT22;9294;51.106;7.028;2022-12-08T15:14:25;20.60;91.40
18337;DHT22;9294;51.106;7.028;2022-12-08T15:16:54;20.60;91.10
18337;DHT22;9294;51.106;7.028;2022-12-08T15:19:26;20.60;91.40
18337;DHT22;9294;51.106;7.028;2022-12-08T15:21:56;20.50;91.30
18337;DHT22;9294;51.106;7.028;2022-12-08T15:24:26;20.60;91.40
18337;DHT22;9294;51.106;7.028;2022-12-08T15:26:54;20.50;91.00
18337;DHT22;9294;51.106;7.028;2022-12-08T15:29:22;20.50;91.20
18337;DHT22;9294;51.106;7.028;2022-12-08T15:31:50;20.50;91.40
18337;DHT22;9294;51.106;7.028;2022-12-08T15:34:18;20.50;91.20
18337;DHT22;9294;51.106;7.028;2022-12-08T15:36:45;20.50;90.90
18337;DHT22;9294;51.106;7.028;2022-12-08T15:39:22;20.50;91.30
18337;DHT22;9294;51.106;7.028;2022-12-08T15:41:51;20.40;91.30
18337;DHT22;9294;51.106;7.028;2022-12-08T15:44:18;20.40;91.30
18337;DHT22;9294;51.106;7.028;2022-12-08T15:46:44;20.40;91.00
18337;DHT22;9294;51.106;7.028;2022-12-08T15:49:15;20.40;91.30
18337;DHT22;9294;51.106;7.028;2022-12-08T15:51:42;20.40;91.20
18337;DHT22;9294;51.106;7.028;2022-12-08T15:54:09;20.50;91.20
18337;DHT22;9294;51.106;7.028;2022-12-08T15:56:37;20.50;91.00
18337;DHT22;9294;51.106;7.028;2022-12-08T15:59:12;20.50;91.00
18337;DHT22;9294;51.106;7.028;2022-12-08T16:01:40;20.50;90.90
18337;DHT22;9294;51.106;7.028;2022-12-08T16:04:07;20.70;91.00
18337;DHT22;9294;51.106;7.028;2022-12-08T16:06:33;20.80;90.40
18337;DHT22;9294;51.106;7.028;2022-12-08T16:09:00;20.80;90.70